Time;durP1;ratioP1;P1;durP2;ratioP2;P2;SDS_P1;SDS_P2;PMS_P1;PMS_P2;Temp;Humidity;BMP_temperature;BMP_pressure;BME280_temperature;BME280_humidity;BME280_pressure;Samples;Min_cycle;Max_cycle;Signal;HPM_P1;HPM_P2
2024/02/05 00:01:34;;;;;;;3.70;2.10;;;9.20;99.90;;;;;;5036959;28;20022;-86
2024/02/05 00:03:59;;;;;;;4.70;2.20;;;9.20;99.90;;;;;;5053700;28;20014;-86
2024/02/05 00:06:25;;;;;;;5.72;1.98;;;9.20;99.90;;;;;;5043066;28;20025;-87
2024/02/05 00:08:51;;;;;;;8.30;2.35;;;9.20;99.90;;;;;;5040066;28;20017;-85
2024/02/05 00:11:17;;;;;;;4.82;2.40;;;9.20;99.90;;;;;;5025743;28;20104;-85
2024/02/05 00:13:43;;;;;;;3.78;1.90;;;9.20;99.90;;;;;;5039773;28;20076;-86
2024/02/05 00:16:09;;;;;;;4.25;2.03;;;9.20;99.90;;;;;;5040582;28;20491;-87
2024/02/05 00:18:35;;;;;;;2.75;1.73;;;9.20;99.90;;;;;;5041428;28;20111;-87
2024/02/05 00:21:01;;;;;;;5.63;1.90;;;9.20;99.90;;;;;;5042685;28;20657;-86
2024/02/05 00:23:26;;;;;;;5.25;2.50;;;9.20;99.90;;;;;;5038034;28;20017;-87
2024/02/05 00:25:52;;;;;;;4.00;2.00;;;9.20;99.90;;;;;;5040800;28;20053;-86
2024/02/05 00:28:17;;;;;;;6.60;2.30;;;9.20;99.90;;;;;;5040957;28;20013;-86
2024/02/05 00:30:43;;;;;;;7.72;2.90;;;9.10;99.90;;;;;;5033864;28;20022;-86
2024/02/05 00:33:09;;;;;;;8.80;2.08;;;9.10;99.90;;;;;;5035204;28;20123;-86
2024/02/05 00:35:34;;;;;;;2.72;1.77;;;9.10;99.90;;;;;;5039143;28;20179;-86
2024/02/05 00:38:00;;;;;;;1.92;1.67;;;9.20;99.90;;;;;;5036243;28;20086;-86
2024/02/05 00:40:26;;;;;;;5.45;2.00;;;9.10;99.90;;;;;;5041772;28;20047;-86
2024/02/05 00:42:51;;;;;;;3.55;1.90;;;9.20;99.90;;;;;;5039855;28;20025;-86
2024/02/05 00:45:18;;;;;;;4.63;2.45;;;9.20;99.90;;;;;;5034528;28;20021;-87
2024/02/05 00:47:43;;;;;;;5.75;2.10;;;9.20;99.90;;;;;;5041523;28;20029;-87
2024/02/05 00:50:09;;;;;;;3.50;1.67;;;9.20;99.90;;;;;;5038986;28;20025;-86
2024/02/05 00:52:35;;;;;;;10.40;2.25;;;9.10;99.90;;;;;;5035165;28;20117;-86
2024/02/05 00:55:01;;;;;;;3.25;1.95;;;9.10;99.90;;;;;;5036111;28;20561;-87
2024/02/05 00:57:27;;;;;;;6.90;2.17;;;9.10;99.90;;;;;;5035211;28;20775;-87
2024/02/05 00:59:54;;;;;;;2.90;1.77;;;9.20;99.90;;;;;;5038592;28;20587;-86
2024/02/05 01:02:20;;;;;;;5.25;1.90;;;9.20;99.90;;;;;;5035677;28;20117;-87
2024/02/05 01:04:46;;;;;;;3.35;2.08;;;9.20;99.90;;;;;;5040514;28;20025;-87
2024/02/05 01:07:12;;;;;;;5.60;2.00;;;9.10;99.90;;;;;;5041182;28;20032;-86
2024/02/05 01:09:38;;;;;;;9.00;1.75;;;9.20;99.90;;;;;;5045312;28;20021;-87
2024/02/05 01:12:04;;;;;;;6.10;2.20;;;9.20;99.90;;;;;;5038208;28;20029;-85
2024/02/05 01:14:29;;;;;;;6.07;2.47;;;9.10;99.90;;;;;;5039126;28;20628;-87
2024/02/05 01:16:55;;;;;;;3.17;2.00;;;9.20;99.90;;;;;;5040913;28;20102;-86
2024/02/05 01:19:22;;;;;;;4.68;1.75;;;9.20;99.90;;;;;;5038367;28;20028;-86
2024/02/05 01:21:47;;;;;;;4.35;2.40;;;9.10;99.90;;;;;;5037589;28;20075;-87
2024/02/05 01:24:13;;;;;;;11.23;1.70;;;9.10;99.90;;;;;;5036510;28;20029;-86
2024/02/05 01:26:38;;;;;;;11.77;2.33;;;9.20;99.90;;;;;;5033408;28;20506;-86
2024/02/05 01:29:06;;;;;;;3.80;2.03;;;9.10;99.90;;;;;;5040472;28;20028;-86
2024/02/05 01:31:32;;;;;;;3.17;1.90;;;9.10;99.90;;;;;;5043292;28;20052;-86
2024/02/05 01:33:59;;;;;;;4.47;2.20;;;9.10;99.90;;;;;;5038510;28;20025;-86
2024/02/05 01:36:25;;;;;;;2.58;1.67;;;9.10;99.90;;;;;;5047436;28;20017;-85
2024/02/05 01:38:51;;;;;;;12.38;2.05;;;9.10;99.90;;;;;;5033294;28;20078;-87
2024/02/05 01:41:16;;;;;;;5.07;2.45;;;9.10;99.90;;;;;;5035047;28;20030;-87
2024/02/05 01:43:42;;;;;;;3.13;2.20;;;9.10;99.90;;;;;;5040667;28;20464;-85
2024/02/05 01:46:12;;;;;;;5.18;2.35;;;9.10;99.90;;;;;;5036322;28;20471;-86
2024/02/05 01:48:38;;;;;;;7.10;2.13;;;9.10;99.90;;;;;;5037747;28;20506;-88
2024/02/05 01:51:05;;;;;;;6.63;2.00;;;9.10;99.90;;;;;;5043211;28;20108;-86
2024/02/05 01:53:32;;;;;;;3.38;2.08;;;9.10;99.90;;;;;;5038150;28;20391;-86
2024/02/05 01:55:58;;;;;;;4.43;1.98;;;9.10;99.90;;;;;;5040230;28;20025;-85
2024/02/05 01:58:23;;;;;;;2.78;1.65;;;9.10;99.90;;;;;;5040988;28;20026;-86
2024/02/05 02:00:49;;;;;;;6.30;2.58;;;9.10;99.90;;;;;;5039839;28;20032;-86
2024/02/05 02:03:14;;;;;;;5.22;2.08;;;9.10;99.90;;;;;;5041200;28;20494;-85
2024/02/05 02:05:40;;;;;;;4.57;2.03;;;9.10;99.90;;;;;;5034144;28;20398;-85
2024/02/05 02:08:11;;;;;;;2.80;1.88;;;9.00;99.90;;;;;;5039704;28;20021;-87
2024/02/05 02:10:37;;;;;;;;;;;9.00;99.90;;;;;;5032420;28;20548;-85
2024/02/05 02:13:03;;;;;;;5.20;2.10;;;9.00;99.90;;;;;;5043336;28;19909;-88
2024/02/05 02:15:29;;;;;;;4.70;2.20;;;9.10;99.90;;;;;;5036521;28;20029;-85
2024/02/05 02:18:00;;;;;;;4.43;1.95;;;9.00;99.90;;;;;;5039301;28;20029;-87
2024/02/05 02:20:28;;;;;;;7.25;1.63;;;9.00;99.90;;;;;;5041454;28;20025;-87
2024/02/05 02:22:57;;;;;;;6.25;1.88;;;9.00;99.90;;;;;;5036810;28;20177;-87
2024/02/05 02:25:23;;;;;;;5.38;2.13;;;9.00;99.90;;;;;;5034236;28;20018;-86
2024/02/05 02:27:49;;;;;;;4.63;2.30;;;9.10;99.90;;;;;;5042463;28;20079;-86
2024/02/05 02:30:18;;;;;;;6.35;2.20;;;9.00;99.90;;;;;;5040237;28;20017;-85
2024/02/05 02:33:03;;;;;;;9.93;2.38;;;9.00;99.90;;;;;;5042361;28;20600;-85
2024/02/05 02:35:48;;;;;;;2.53;1.80;;;9.00;99.90;;;;;;5036387;28;20025;-86
2024/02/05 02:38:19;;;;;;;12.38;3.00;;;9.00;99.90;;;;;;5043089;28;20044;-86
2024/02/05 02:40:48;;;;;;;6.18;2.10;;;9.00;99.90;;;;;;5039472;28;20112;-86
2024/02/05 02:43:14;;;;;;;2.33;1.60;;;9.00;99.90;;;;;;5037482;28;20021;-86
2024/02/05 02:45:41;;;;;;;3.55;1.70;;;9.00;99.90;;;;;;5038015;28;20018;-86
2024/02/05 02:48:07;;;;;;;2.42;1.60;;;9.10;99.90;;;;;;5035993;28;20051;-87
2024/02/05 02:50:32;;;;;;;3.50;1.85;;;9.00;99.90;;;;;;5046323;28;20574;-86
2024/02/05 02:52:58;;;;;;;3.90;2.30;;;9.00;99.90;;;;;;5038664;28;20021;-86
2024/02/05 02:55:24;;;;;;;2.42;1.85;;;9.00;99.90;;;;;;5031103;28;20018;-85
2024/02/05 02:57:50;;;;;;;4.13;2.03;;;9.00;99.90;;;;;;5040342;28;20010;-86
2024/02/05 03:00:16;;;;;;;8.18;1.88;;;9.10;99.90;;;;;;5041993;28;20121;-85
2024/02/05 03:02:42;;;;;;;4.72;1.90;;;9.10;99.90;;;;;;5047499;28;20538;-85
2024/02/05 03:05:08;;;;;;;2.63;1.80;;;9.10;99.90;;;;;;5035732;28;20017;-87
2024/02/05 03:07:34;;;;;;;4.90;2.63;;;9.10;99.90;;;;;;5039008;28;20033;-85
2024/02/05 03:10:03;;;;;;;4.07;2.13;;;9.10;99.90;;;;;;5040397;28;20067;-84
2024/02/05 03:12:28;;;;;;;6.25;1.67;;;9.10;99.90;;;;;;5031747;28;20025;-86
2024/02/05 03:14:54;;;;;;;5.00;2.00;;;9.10;99.90;;;;;;5037548;28;20450;-86
2024/02/05 03:17:20;;;;;;;2.42;1.60;;;9.10;99.90;;;;;;5041643;28;20025;-86
2024/02/05 03:19:45;;;;;;;1.60;1.48;;;9.10;99.90;;;;;;5042968;28;20029;-87
2024/02/05 03:22:11;;;;;;;2.63;1.73;;;9.10;99.90;;;;;;5041643;28;20032;-86
2024/02/05 03:24:37;;;;;;;3.25;1.60;;;9.00;99.90;;;;;;5041455;28;20071;-86
2024/02/05 03:27:03;;;;;;;5.50;1.75;;;9.10;99.90;;;;;;5043367;28;20037;-87
2024/02/05 03:29:28;;;;;;;2.75;1.50;;;9.00;99.90;;;;;;5029271;28;20502;-86
2024/02/05 03:31:54;;;;;;;2.80;1.30;;;9.10;99.90;;;;;;5038126;28;20032;-86
2024/02/05 03:34:19;;;;;;;1.60;1.30;;;9.10;99.90;;;;;;5039749;28;20033;-86
2024/02/05 03:36:45;;;;;;;3.75;1.10;;;9.10;99.90;;;;;;5041909;28;20453;-86
2024/02/05 03:39:10;;;;;;;1.13;1.02;;;9.10;99.90;;;;;;5036715;28;20041;-86
2024/02/05 03:41:36;;;;;;;3.00;1.73;;;9.10;99.90;;;;;;5039996;28;20032;-86
2024/02/05 03:44:02;;;;;;;3.08;0.88;;;9.10;99.90;;;;;;5037458;28;20024;-87
2024/02/05 03:46:27;;;;;;;2.20;0.95;;;9.10;99.90;;;;;;5035803;28;20018;-86
2024/02/05 03:48:55;;;;;;;1.00;0.90;;;9.10;99.90;;;;;;5045218;28;20020;-86
2024/02/05 03:51:21;;;;;;;1.85;1.10;;;9.10;99.90;;;;;;5036441;28;20029;-85
2024/02/05 03:53:51;;;;;;;1.45;1.10;;;9.10;99.90;;;;;;5042736;28;20025;-86
2024/02/05 03:56:18;;;;;;;0.80;0.80;;;9.10;99.90;;;;;;5033104;28;20038;-86
2024/02/05 03:58:44;;;;;;;0.77;0.77;;;9.10;99.90;;;;;;5044311;28;20055;-86
2024/02/05 04:01:09;;;;;;;5.60;1.10;;;9.10;99.90;;;;;;5040859;28;20090;-86
2024/02/05 04:03:35;;;;;;;1.73;1.20;;;9.10;99.90;;;;;;5038417;28;20501;-86
2024/02/05 04:06:00;;;;;;;0.95;0.95;;;9.10;99.90;;;;;;5040396;28;20029;-86
2024/02/05 04:08:26;;;;;;;2.05;0.90;;;9.10;99.90;;;;;;5036083;28;20024;-87
2024/02/05 04:10:51;;;;;;;2.22;1.20;;;9.10;99.90;;;;;;5038773;28;20402;-85
2024/02/05 04:13:17;;;;;;;0.98;0.73;;;9.10;99.90;;;;;;5042683;28;20605;-86
2024/02/05 04:15:43;;;;;;;1.35;0.82;;;9.10;99.90;;;;;;5037044;28;20076;-85
2024/02/05 04:18:09;;;;;;;1.10;0.90;;;9.10;99.90;;;;;;5042483;28;20026;-86
2024/02/05 04:20:35;;;;;;;0.75;0.75;;;9.10;99.90;;;;;;5042548;28;20025;-85
2024/02/05 04:23:00;;;;;;;1.67;0.70;;;9.10;99.90;;;;;;5028185;28;20030;-86
2024/02/05 04:25:26;;;;;;;2.10;0.88;;;9.10;99.90;;;;;;5033103;28;20506;-87
2024/02/05 04:27:53;;;;;;;0.80;0.70;;;9.10;99.90;;;;;;5039611;28;20018;-86
2024/02/05 04:30:26;;;;;;;1.38;0.77;;;9.10;99.90;;;;;;5031688;28;20029;-85
2024/02/05 04:32:52;;;;;;;1.98;0.60;;;9.10;99.90;;;;;;5031028;28;20487;-86
2024/02/05 04:35:18;;;;;;;1.92;0.90;;;9.10;99.90;;;;;;5038566;28;20064;-86
2024/02/05 04:37:43;;;;;;;3.45;0.90;;;9.10;99.90;;;;;;5020935;28;20029;-86
2024/02/05 04:40:09;;;;;;;1.17;0.82;;;9.10;99.90;;;;;;5037189;28;20470;-87
2024/02/05 04:42:35;;;;;;;0.82;0.77;;;9.10;99.90;;;;;;5032179;28;20025;-86
2024/02/05 04:45:01;;;;;;;1.63;0.90;;;9.10;99.90;;;;;;5039849;28;20746;-87
2024/02/05 04:47:26;;;;;;;1.02;0.80;;;9.10;99.90;;;;;;5030142;28;20017;-85
2024/02/05 04:49:52;;;;;;;1.52;0.98;;;9.10;99.90;;;;;;5043607;28;20029;-87
2024/02/05 04:52:18;;;;;;;0.60;0.60;;;9.10;99.90;;;;;;5038415;28;20018;-85
2024/02/05 04:54:44;;;;;;;0.90;0.80;;;9.10;99.90;;;;;;5038488;28;20017;-85
2024/02/05 04:57:09;;;;;;;0.80;0.80;;;9.10;99.90;;;;;;5037638;28;20033;-86
2024/02/05 04:59:35;;;;;;;0.80;0.60;;;9.10;99.90;;;;;;5035504;28;20085;-86
2024/02/05 05:02:00;;;;;;;0.63;0.63;;;9.10;99.90;;;;;;5039388;28;20033;-86
2024/02/05 05:04:26;;;;;;;1.33;1.08;;;9.10;99.90;;;;;;5038429;28;20131;-86
2024/02/05 05:06:52;;;;;;;1.00;0.70;;;9.10;99.90;;;;;;5038854;28;20097;-85
2024/02/05 05:09:17;;;;;;;1.70;0.98;;;9.10;99.90;;;;;;5037805;28;20437;-86
2024/02/05 05:11:43;;;;;;;0.70;0.70;;;9.10;99.90;;;;;;5040363;28;20017;-85
2024/02/05 05:14:08;;;;;;;0.70;0.70;;;9.10;99.90;;;;;;5035574;28;20029;-86
2024/02/05 05:16:34;;;;;;;1.15;0.85;;;9.10;99.90;;;;;;5040357;28;20425;-87
2024/02/05 05:19:01;;;;;;;2.35;0.90;;;9.10;99.90;;;;;;5036820;28;20065;-87
2024/02/05 05:21:27;;;;;;;1.73;0.70;;;9.10;99.90;;;;;;5035239;28;20174;-88
2024/02/05 05:23:52;;;;;;;0.60;0.60;;;9.10;99.90;;;;;;5039281;28;20485;-87
2024/02/05 05:26:21;;;;;;;0.55;0.55;;;9.10;99.90;;;;;;5035478;28;20041;-86
2024/02/05 05:28:48;;;;;;;0.93;0.60;;;9.10;99.90;;;;;;5044395;28;20021;-86
2024/02/05 05:31:16;;;;;;;0.90;0.55;;;9.10;99.90;;;;;;5037516;28;20081;-86
2024/02/05 05:33:45;;;;;;;0.68;0.68;;;9.10;99.90;;;;;;5039198;28;20051;-86
2024/02/05 05:36:10;;;;;;;0.50;0.50;;;9.10;99.90;;;;;;5046772;28;20028;-85
2024/02/05 05:38:36;;;;;;;0.60;0.60;;;9.10;99.90;;;;;;5040903;28;20029;-86
2024/02/05 05:41:03;;;;;;;0.85;0.68;;;9.10;99.90;;;;;;5041510;28;20650;-86
2024/02/05 05:43:29;;;;;;;3.22;0.60;;;9.10;99.90;;;;;;5046079;28;20111;-86
2024/02/05 05:45:55;;;;;;;0.77;0.77;;;9.10;99.90;;;;;;5041895;28;20013;-86
2024/02/05 05:48:21;;;;;;;0.60;0.60;;;9.10;99.90;;;;;;5034366;28;20039;-85
2024/02/05 05:50:47;;;;;;;0.73;0.73;;;9.10;99.90;;;;;;5040215;28;20021;-86
2024/02/05 05:53:13;;;;;;;0.95;0.60;;;9.10;99.90;;;;;;5035622;28;20017;-86
2024/02/05 05:55:39;;;;;;;1.63;0.90;;;9.10;99.90;;;;;;5041843;28;20096;-86
2024/02/05 05:58:04;;;;;;;1.30;0.70;;;9.10;99.90;;;;;;5038704;28;20021;-86
2024/02/05 06:00:30;;;;;;;2.42;0.70;;;9.10;99.90;;;;;;5041988;28;20025;-86
2024/02/05 06:02:56;;;;;;;1.35;0.68;;;9.10;99.90;;;;;;5037748;28;20181;-86
2024/02/05 06:05:22;;;;;;;0.80;0.60;;;9.10;99.90;;;;;;5043297;28;20048;-86
2024/02/05 06:07:48;;;;;;;1.05;0.60;;;9.10;99.90;;;;;;5045874;28;20434;-85
2024/02/05 06:10:13;;;;;;;0.75;0.75;;;9.10;99.90;;;;;;5044059;28;20017;-85
2024/02/05 06:12:44;;;;;;;0.60;0.60;;;9.10;99.90;;;;;;5042071;28;20026;-85
2024/02/05 06:15:11;;;;;;;0.60;0.60;;;9.10;99.90;;;;;;5039676;28;20119;-86
2024/02/05 06:17:37;;;;;;;1.35;0.60;;;9.10;99.90;;;;;;5030007;28;20431;-87
2024/02/05 06:20:05;;;;;;;1.35;0.60;;;9.10;99.90;;;;;;5040753;28;20025;-85
2024/02/05 06:22:31;;;;;;;1.50;0.77;;;9.10;99.90;;;;;;5041548;28;20498;-87
2024/02/05 06:24:57;;;;;;;1.30;0.80;;;9.10;99.90;;;;;;5040052;28;20017;-87
2024/02/05 06:27:23;;;;;;;0.60;0.60;;;9.00;99.90;;;;;;5041989;28;20475;-84
2024/02/05 06:29:48;;;;;;;0.60;0.50;;;9.10;99.90;;;;;;5044083;28;20066;-86
2024/02/05 06:32:14;;;;;;;0.60;0.60;;;9.10;99.90;;;;;;5042499;28;20091;-86
2024/02/05 06:34:40;;;;;;;0.40;0.40;;;9.10;99.90;;;;;;5039849;28;20024;-85
2024/02/05 06:37:06;;;;;;;0.70;0.70;;;9.10;99.90;;;;;;5041783;28;20063;-86
2024/02/05 06:39:31;;;;;;;1.75;0.70;;;9.10;99.90;;;;;;5043897;28;20114;-85
2024/02/05 06:41:57;;;;;;;6.68;0.63;;;9.00;99.90;;;;;;5040582;28;20021;-88
2024/02/05 06:44:22;;;;;;;2.55;0.82;;;9.00;99.90;;;;;;5042157;28;20032;-86
2024/02/05 06:46:48;;;;;;;0.85;0.75;;;9.00;99.90;;;;;;5044054;28;20017;-85
2024/02/05 06:49:14;;;;;;;0.70;0.70;;;9.00;99.90;;;;;;5037083;28;20028;-85
2024/02/05 06:51:41;;;;;;;4.47;0.85;;;9.00;99.90;;;;;;5036067;28;20029;-84
2024/02/05 06:54:07;;;;;;;3.10;1.10;;;9.00;99.90;;;;;;5038794;28;20115;-85
2024/02/05 06:56:33;;;;;;;1.48;0.95;;;9.00;99.90;;;;;;5039970;28;20020;-85
2024/02/05 06:58:58;;;;;;;3.97;1.35;;;9.00;99.90;;;;;;5037921;28;20021;-87
2024/02/05 07:01:25;;;;;;;2.90;1.30;;;9.00;99.90;;;;;;5036916;28;20052;-85
2024/02/05 07:03:51;;;;;;;2.42;1.33;;;9.00;99.90;;;;;;5040223;28;20022;-85
2024/02/05 07:06:17;;;;;;;2.70;1.42;;;9.00;99.90;;;;;;5041383;28;20035;-87
2024/02/05 07:08:45;;;;;;;3.28;1.80;;;9.00;99.90;;;;;;5038309;28;20109;-85
2024/02/05 07:11:11;;;;;;;2.03;1.50;;;9.00;99.90;;;;;;5034263;28;20041;-86
2024/02/05 07:13:38;;;;;;;1.88;1.38;;;9.00;99.90;;;;;;5030071;28;21517;-85
2024/02/05 07:16:05;;;;;;;9.98;1.88;;;9.00;99.90;;;;;;5031119;28;20040;-88
2024/02/05 07:18:30;;;;;;;7.07;2.60;;;9.00;99.90;;;;;;5031900;28;20120;-85
2024/02/05 07:20:56;;;;;;;3.60;1.92;;;9.00;99.90;;;;;;5026894;28;20119;-85
2024/02/05 07:23:22;;;;;;;7.45;3.22;;;9.00;99.90;;;;;;5036191;28;20121;-85
2024/02/05 07:25:47;;;;;;;5.20;2.45;;;9.00;99.90;;;;;;5040726;28;20013;-85
2024/02/05 07:28:13;;;;;;;6.85;2.55;;;9.00;99.90;;;;;;5038687;28;20029;-85
2024/02/05 07:30:38;;;;;;;4.00;2.47;;;9.00;99.90;;;;;;5041652;28;20092;-86
2024/02/05 07:33:04;;;;;;;3.88;2.30;;;9.00;99.90;;;;;;5046251;28;20550;-84
2024/02/05 07:35:30;;;;;;;6.47;2.85;;;9.00;99.90;;;;;;5043226;28;20483;-84
2024/02/05 07:37:55;;;;;;;9.23;2.75;;;9.00;99.90;;;;;;5042324;28;20095;-85
2024/02/05 07:40:21;;;;;;;8.40;2.90;;;9.00;99.90;;;;;;5035736;28;20032;-85
2024/02/05 07:42:46;;;;;;;3.00;2.35;;;9.00;99.90;;;;;;5039042;28;20029;-84
2024/02/05 07:45:12;;;;;;;6.35;2.55;;;9.00;99.90;;;;;;5029620;28;20056;-84
2024/02/05 07:47:37;;;;;;;5.10;3.03;;;9.00;99.90;;;;;;5039664;28;20110;-84
2024/02/05 07:50:03;;;;;;;13.88;3.10;;;9.00;99.90;;;;;;5034826;28;20025;-85
2024/02/05 07:52:29;;;;;;;4.78;2.78;;;9.00;99.90;;;;;;5039156;28;20083;-85
2024/02/05 07:54:54;;;;;;;6.35;3.20;;;9.00;99.90;;;;;;5030850;28;20014;-85
2024/02/05 07:57:20;;;;;;;8.77;3.85;;;9.00;99.90;;;;;;5042071;28;20031;-86
2024/02/05 07:59:45;;;;;;;6.38;3.03;;;9.00;99.90;;;;;;5036065;28;20035;-84
2024/02/05 08:02:11;;;;;;;5.40;3.28;;;9.00;99.90;;;;;;5032071;28;20041;-84
2024/02/05 08:04:36;;;;;;;6.88;3.15;;;9.00;99.90;;;;;;5037400;28;20471;-86
2024/02/05 08:07:04;;;;;;;7.90;3.22;;;9.00;99.90;;;;;;5032204;28;20537;-85
2024/02/05 08:09:30;;;;;;;6.07;3.25;;;9.00;99.90;;;;;;5039031;28;20025;-84
2024/02/05 08:11:55;;;;;;;8.02;3.72;;;9.00;99.90;;;;;;5029119;28;20087;-86
2024/02/05 08:14:21;;;;;;;6.72;3.50;;;9.00;99.90;;;;;;5028253;28;20124;-87
2024/02/05 08:16:47;;;;;;;6.97;3.58;;;9.00;99.90;;;;;;5035849;28;20024;-85
2024/02/05 08:19:13;;;;;;;6.25;3.63;;;9.10;99.90;;;;;;5026606;28;20029;-85
2024/02/05 08:21:38;;;;;;;5.57;3.70;;;9.10;99.90;;;;;;5036400;28;20037;-85
2024/02/05 08:24:04;;;;;;;8.38;3.70;;;9.10;99.90;;;;;;5034558;28;20031;-84
2024/02/05 08:26:31;;;;;;;6.78;3.55;;;9.10;99.90;;;;;;5038412;28;20021;-84
2024/02/05 08:28:56;;;;;;;5.05;3.67;;;9.10;99.90;;;;;;5039761;28;20049;-85
2024/02/05 08:31:22;;;;;;;6.47;3.97;;;9.10;99.90;;;;;;5031887;28;20065;-86
2024/02/05 08:33:48;;;;;;;7.00;4.68;;;9.10;99.90;;;;;;5024141;28;20033;-86
2024/02/05 08:36:14;;;;;;;7.57;5.00;;;9.00;99.90;;;;;;5035332;28;20670;-86
2024/02/05 08:38:41;;;;;;;6.53;4.88;;;9.10;99.90;;;;;;5027958;28;20518;-85
2024/02/05 08:41:07;;;;;;;7.63;4.95;;;9.10;99.90;;;;;;5029183;28;20057;-86
2024/02/05 08:43:33;;;;;;;9.10;5.60;;;9.00;99.90;;;;;;5036189;28;20022;-84
2024/02/05 08:45:58;;;;;;;9.52;5.28;;;9.10;99.90;;;;;;5029792;28;20024;-85
2024/02/05 08:48:25;;;;;;;13.07;5.78;;;9.10;99.90;;;;;;5025688;28;20753;-84
2024/02/05 08:50:50;;;;;;;10.00;5.65;;;9.10;99.90;;;;;;5030814;28;20025;-85
2024/02/05 08:53:16;;;;;;;7.97;5.15;;;9.10;99.90;;;;;;5031203;28;20066;-85
2024/02/05 08:55:42;;;;;;;10.10;5.20;;;9.10;99.90;;;;;;5038075;28;20021;-87
2024/02/05 08:58:07;;;;;;;11.45;5.47;;;9.10;99.90;;;;;;5029350;28;20033;-86
2024/02/05 09:00:33;;;;;;;9.63;5.10;;;9.20;99.90;;;;;;5029571;28;20108;-84
2024/02/05 09:02:59;;;;;;;16.23;5.78;;;9.30;99.90;;;;;;5033777;28;20111;-85
2024/02/05 09:05:25;;;;;;;8.27;5.28;;;9.40;99.90;;;;;;5032433;28;20021;-84
2024/02/05 09:07:50;;;;;;;7.47;4.57;;;9.50;99.90;;;;;;5039198;28;20071;-87
2024/02/05 09:10:19;;;;;;;7.45;5.05;;;9.60;99.90;;;;;;5030746;28;20574;-84
2024/02/05 09:12:44;;;;;;;9.95;4.88;;;9.70;99.90;;;;;;5039357;28;20051;-85
2024/02/05 09:15:10;;;;;;;7.43;5.05;;;9.80;99.90;;;;;;5038423;28;20479;-85
2024/02/05 09:17:36;;;;;;;10.68;5.88;;;9.90;99.90;;;;;;5040223;28;20017;-85
2024/02/05 09:20:02;;;;;;;13.05;6.75;;;10.00;99.90;;;;;;5042487;28;20040;-85
2024/02/05 09:22:28;;;;;;;14.13;6.57;;;10.00;99.90;;;;;;5038639;28;20036;-86
2024/02/05 09:24:53;;;;;;;11.13;6.75;;;10.10;99.90;;;;;;5037939;28;20017;-85
2024/02/05 09:27:19;;;;;;;12.27;8.00;;;10.20;99.90;;;;;;5033713;28;20028;-84
2024/02/05 09:29:45;;;;;;;12.13;7.88;;;10.30;99.90;;;;;;5036969;28;20060;-85
2024/02/05 09:32:10;;;;;;;12.63;7.97;;;10.30;99.90;;;;;;5035300;28;20045;-85
2024/02/05 09:34:36;;;;;;;15.57;7.70;;;10.30;99.90;;;;;;5036474;28;20038;-85
2024/02/05 09:37:03;;;;;;;13.75;8.02;;;10.20;99.90;;;;;;5041239;28;20119;-85
2024/02/05 09:39:28;;;;;;;12.90;7.72;;;10.10;99.90;;;;;;5033152;28;20087;-84
2024/02/05 09:41:59;;;;;;;14.32;8.75;;;10.00;99.90;;;;;;5036148;28;20029;-85
2024/02/05 09:44:27;;;;;;;12.07;7.07;;;9.80;99.90;;;;;;5037289;28;20017;-85
2024/02/05 09:46:55;;;;;;;12.38;6.97;;;9.80;99.90;;;;;;5037426;28;20025;-85
2024/02/05 09:49:21;;;;;;;10.18;6.60;;;9.70;99.90;;;;;;5036633;28;20009;-84
2024/02/05 09:51:48;;;;;;;17.23;7.93;;;9.60;99.90;;;;;;5038746;28;20475;-85
2024/02/05 09:54:14;;;;;;;13.98;7.05;;;9.60;99.90;;;;;;5026730;28;20115;-84
2024/02/05 09:56:40;;;;;;;13.10;7.55;;;9.70;99.90;;;;;;5036926;28;20033;-87
2024/02/05 09:59:06;;;;;;;12.32;7.10;;;9.70;99.90;;;;;;5027627;28;20025;-85
2024/02/05 10:01:32;;;;;;;14.50;7.90;;;9.70;99.90;;;;;;5033343;28;20527;-85
2024/02/05 10:04:00;;;;;;;14.10;7.43;;;9.70;99.90;;;;;;5037275;28;20527;-85
2024/02/05 10:06:33;;;;;;;12.20;7.78;;;9.80;99.90;;;;;;5038473;28;20034;-85
2024/02/05 10:09:04;;;;;;;12.75;6.97;;;10.20;99.90;;;;;;5035112;28;20053;-86
2024/02/05 10:11:43;;;;;;;10.38;6.65;;;10.60;99.90;;;;;;5036678;28;20479;-85
2024/02/05 10:14:09;;;;;;;10.07;6.25;;;10.90;99.90;;;;;;5040441;28;20494;-85
2024/02/05 10:16:37;;;;;;;13.77;7.00;;;10.90;99.90;;;;;;5035529;28;20110;-85
2024/02/05 10:19:05;;;;;;;9.95;5.97;;;10.90;99.90;;;;;;5042022;28;20483;-86
2024/02/05 10:21:32;;;;;;;10.88;6.57;;;10.80;99.90;;;;;;5039539;28;20028;-86
2024/02/05 10:23:58;;;;;;;12.68;6.45;;;10.60;99.90;;;;;;5045515;28;20151;-86
2024/02/05 10:26:24;;;;;;;9.45;6.30;;;10.60;99.90;;;;;;5042921;28;20104;-86
2024/02/05 10:28:50;;;;;;;10.80;6.75;;;10.40;99.90;;;;;;5040472;28;20102;-85
2024/02/05 10:31:17;;;;;;;8.82;6.05;;;10.40;99.90;;;;;;5037771;28;20032;-85
2024/02/05 10:33:45;;;;;;;10.40;6.43;;;10.50;99.90;;;;;;5037970;28;20111;-85
2024/02/05 10:36:14;;;;;;;12.77;6.53;;;10.70;99.90;;;;;;5033060;28;20028;-86
2024/02/05 10:38:40;;;;;;;16.85;6.30;;;10.90;99.90;;;;;;5038051;28;20028;-85
2024/02/05 10:41:05;;;;;;;14.30;7.05;;;11.20;99.90;;;;;;5037723;28;20029;-86
2024/02/05 10:43:31;;;;;;;15.95;7.97;;;11.30;99.90;;;;;;5038032;28;20028;-85
2024/02/05 10:45:58;;;;;;;11.82;6.88;;;11.40;99.90;;;;;;5040701;28;20017;-86
2024/02/05 10:48:24;;;;;;;11.07;6.07;;;11.60;99.90;;;;;;5035372;28;20021;-84
2024/02/05 10:50:50;;;;;;;8.35;5.63;;;11.60;99.90;;;;;;5029218;28;20013;-85
2024/02/05 10:53:17;;;;;;;9.18;5.10;;;11.80;99.90;;;;;;5036714;28;20694;-85
2024/02/05 10:55:45;;;;;;;6.80;4.80;;;11.80;99.90;;;;;;5038680;28;20017;-83
2024/02/05 10:58:13;;;;;;;8.40;5.15;;;11.80;99.90;;;;;;5031680;28;20124;-85
2024/02/05 11:00:40;;;;;;;9.52;5.15;;;11.80;99.90;;;;;;5029238;28;20025;-86
2024/02/05 11:03:08;;;;;;;6.07;4.40;;;11.90;99.90;;;;;;5035750;28;20044;-85
2024/02/05 11:05:37;;;;;;;6.00;4.10;;;11.90;99.90;;;;;;5041509;28;20104;-85
2024/02/05 11:08:09;;;;;;;8.57;3.90;;;12.00;99.90;;;;;;5039599;28;20498;-85
2024/02/05 11:10:42;;;;;;;14.93;3.80;;;11.80;99.90;;;;;;5039467;28;20025;-86
2024/02/05 11:13:12;;;;;;;6.47;3.50;;;11.00;99.90;;;;;;5041823;28;20067;-85
2024/02/05 11:15:39;;;;;;;6.25;3.55;;;10.60;99.90;;;;;;5042035;28;20026;-85
2024/02/05 11:18:14;;;;;;;5.82;3.05;;;10.50;99.90;;;;;;5041268;28;20049;-85
2024/02/05 11:20:42;;;;;;;9.02;3.65;;;10.40;99.90;;;;;;5035496;28;20028;-86
2024/02/05 11:23:08;;;;;;;6.35;3.15;;;10.30;99.90;;;;;;5041064;28;20049;-85
2024/02/05 11:25:33;;;;;;;8.63;3.03;;;10.20;99.90;;;;;;5038595;28;20048;-86
2024/02/05 11:28:00;;;;;;;6.10;3.40;;;10.10;99.90;;;;;;5034671;28;20026;-85
2024/02/05 11:30:29;;;;;;;10.55;3.97;;;10.10;99.90;;;;;;5033026;28;20033;-84
2024/02/05 11:32:54;;;;;;;11.50;4.10;;;10.10;99.90;;;;;;5035632;28;20053;-85
2024/02/05 11:35:29;;;;;;;6.30;3.50;;;10.10;99.90;;;;;;5030209;28;20526;-86
2024/02/05 11:38:08;;;;;;;8.52;4.15;;;10.20;99.90;;;;;;5032739;28;20109;-87
2024/02/05 11:40:37;;;;;;;4.78;2.65;;;10.10;99.90;;;;;;5043510;28;20028;-86
2024/02/05 11:43:06;;;;;;;9.45;3.58;;;10.20;99.90;;;;;;5037301;28;20033;-84
2024/02/05 11:45:35;;;;;;;7.65;3.30;;;10.20;99.90;;;;;;5037208;28;20028;-85
2024/02/05 11:48:03;;;;;;;7.75;3.70;;;10.30;99.90;;;;;;5028449;28;20515;-87
2024/02/05 11:50:31;;;;;;;4.07;2.67;;;10.30;99.90;;;;;;5025995;28;20057;-85
2024/02/05 11:52:57;;;;;;;6.80;2.40;;;10.20;99.90;;;;;;5035020;28;20772;-85
2024/02/05 11:55:25;;;;;;;9.77;3.28;;;10.10;99.90;;;;;;5030673;28;20030;-85
2024/02/05 11:57:51;;;;;;;5.88;3.13;;;10.30;99.90;;;;;;5037972;28;20017;-85
2024/02/05 12:00:18;;;;;;;6.57;2.50;;;10.40;99.90;;;;;;5035848;28;20040;-86
2024/02/05 12:02:47;;;;;;;7.35;2.38;;;10.40;99.90;;;;;;5035786;28;20632;-85
2024/02/05 12:05:15;;;;;;;10.48;2.90;;;10.40;99.90;;;;;;5034315;28;20029;-86
2024/02/05 12:07:41;;;;;;;5.43;2.65;;;10.40;99.90;;;;;;5040957;28;20083;-86
2024/02/05 12:10:09;;;;;;;5.20;2.30;;;10.40;99.90;;;;;;5031797;28;20517;-85
2024/02/05 12:12:36;;;;;;;10.07;2.45;;;10.50;99.90;;;;;;5032207;28;20112;-86
2024/02/05 12:15:04;;;;;;;3.78;2.30;;;10.60;99.90;;;;;;5036076;28;20064;-84
2024/02/05 12:17:31;;;;;;;6.40;2.30;;;10.50;99.90;;;;;;5028990;28;20028;-85
2024/02/05 12:20:00;;;;;;;7.07;2.30;;;10.40;99.90;;;;;;5033985;28;20495;-86
2024/02/05 12:22:30;;;;;;;2.67;1.80;;;11.30;99.90;;;;;;5036411;28;20675;-85
2024/02/05 12:24:56;;;;;;;9.00;2.28;;;12.20;99.90;;;;;;5020442;28;20014;-85
2024/02/05 12:27:22;;;;;;;2.70;2.00;;;12.10;99.90;;;;;;5034547;28;20036;-86
2024/02/05 12:29:48;;;;;;;2.90;1.73;;;12.10;99.90;;;;;;5036135;28;20108;-85
2024/02/05 12:32:14;;;;;;;6.18;2.10;;;12.60;99.90;;;;;;5036754;28;20193;-85
2024/02/05 12:34:40;;;;;;;6.15;3.03;;;13.20;99.90;;;;;;5036276;28;20116;-85
2024/02/05 12:37:09;;;;;;;2.92;1.85;;;13.50;99.90;;;;;;5039902;28;20047;-84
2024/02/05 12:39:37;;;;;;;3.45;1.83;;;13.30;99.90;;;;;;5035474;28;20028;-84
2024/02/05 12:42:02;;;;;;;9.57;2.08;;;12.60;99.90;;;;;;5037345;28;20048;-84
2024/02/05 12:44:28;;;;;;;6.75;2.05;;;12.10;99.90;;;;;;5027976;28;20469;-84
2024/02/05 12:46:54;;;;;;;12.23;2.03;;;13.00;99.90;;;;;;5034244;28;20021;-84
2024/02/05 12:49:22;;;;;;;6.32;2.47;;;13.50;99.90;;;;;;5037591;28;20017;-84